createdAt,value
2017-12-21T00:01:55.325Z,15.05
2017-12-21T00:04:23.053Z,15.65
2017-12-21T00:06:50.777Z,15.65
2017-12-21T00:09:18.540Z,15.65
2017-12-21T00:11:46.281Z,15.63
2017-12-21T00:14:14.025Z,16.70
2017-12-21T00:16:41.774Z,16.08
2017-12-21T00:19:09.513Z,15.10
2017-12-21T00:21:37.230Z,13.10
2017-12-21T00:24:04.958Z,15.82
2017-12-21T00:26:33.447Z,16.12
2017-12-21T00:29:01.170Z,16.55
2017-12-21T00:31:28.897Z,15.93
2017-12-21T00:33:56.624Z,15.10
2017-12-21T00:36:25.122Z,16.10
2017-12-21T00:38:52.860Z,16.85
2017-12-21T00:41:21.357Z,15.57
2017-12-21T00:43:49.850Z,16.42
2017-12-21T00:46:17.577Z,17.75
2017-12-21T00:48:45.305Z,15.85
2017-12-21T00:51:13.046Z,16.95
2017-12-21T00:53:40.765Z,16.40
2017-12-21T00:56:08.490Z,18.45
2017-12-21T00:58:36.214Z,17.12
2017-12-21T01:01:04.714Z,17.35
2017-12-21T01:03:32.442Z,17.45
2017-12-21T01:06:00.237Z,17.73
2017-12-21T01:08:28.719Z,18.48
2017-12-21T01:10:57.209Z,18.58
2017-12-21T01:13:24.937Z,18.23
2017-12-21T01:15:52.669Z,17.60
2017-12-21T01:18:20.391Z,18.02
2017-12-21T01:20:48.875Z,16.00
2017-12-21T01:23:17.365Z,17.05
2017-12-21T01:25:45.095Z,18.08
2017-12-21T01:28:12.822Z,17.17
2017-12-21T01:30:40.544Z,16.83
2017-12-21T01:33:09.040Z,19.12
2017-12-21T01:35:36.763Z,18.23
2017-12-21T01:38:04.489Z,18.50
2017-12-21T01:40:32.273Z,19.48
2017-12-21T01:43:00.042Z,18.73
2017-12-21T01:45:27.806Z,17.48
2017-12-21T01:47:55.525Z,17.87
2017-12-21T01:50:23.304Z,17.73
2017-12-21T01:52:51.076Z,16.67
2017-12-21T01:55:18.820Z,18.58
2017-12-21T01:57:46.560Z,15.77
2017-12-21T02:00:14.347Z,17.90
2017-12-21T02:02:42.074Z,17.73
2017-12-21T02:05:09.882Z,17.20
2017-12-21T02:07:37.640Z,17.52
2017-12-21T02:10:06.174Z,17.20
2017-12-21T02:12:33.934Z,16.00
2017-12-21T02:15:01.667Z,17.20
2017-12-21T02:17:29.414Z,17.70
2017-12-21T02:19:57.958Z,16.98
2017-12-21T02:22:25.747Z,15.63
2017-12-21T02:24:54.316Z,16.33
2017-12-21T02:27:22.104Z,16.92
2017-12-21T02:29:50.673Z,16.60
2017-12-21T02:32:18.465Z,16.85
2017-12-21T02:34:46.270Z,18.37
2017-12-21T02:37:14.050Z,16.00
2017-12-21T02:39:41.830Z,16.87
2017-12-21T02:42:09.615Z,15.60
2017-12-21T02:44:38.178Z,15.43
2017-12-21T02:47:05.970Z,16.35
2017-12-21T02:49:34.518Z,17.58
2017-12-21T02:52:02.309Z,16.25
2017-12-21T02:54:30.856Z,17.85
2017-12-21T02:56:58.608Z,15.38
2017-12-21T02:59:26.409Z,15.98
2017-12-21T03:01:54.177Z,17.67
2017-12-21T03:04:21.965Z,16.85
2017-12-21T03:06:50.518Z,16.55
2017-12-21T03:09:18.298Z,16.10
2017-12-21T03:11:46.081Z,16.75
2017-12-21T03:14:14.630Z,15.88
2017-12-21T03:16:42.398Z,16.35
2017-12-21T03:19:10.136Z,16.20
2017-12-21T03:21:37.865Z,17.02
2017-12-21T03:24:05.618Z,18.12
2017-12-21T03:26:34.144Z,16.37
2017-12-21T03:29:01.906Z,17.05
2017-12-21T03:31:29.657Z,15.80
2017-12-21T03:33:57.493Z,15.77
2017-12-21T03:36:26.001Z,17.23
2017-12-21T03:38:53.739Z,16.50
2017-12-21T03:41:21.522Z,16.87
2017-12-21T03:43:49.261Z,16.52
2017-12-21T03:46:17.813Z,16.17
2017-12-21T03:48:45.553Z,15.85
2017-12-21T03:51:13.344Z,15.98
2017-12-21T03:53:41.099Z,14.70
2017-12-21T03:56:08.867Z,15.38
2017-12-21T03:58:36.617Z,15.25
2017-12-21T04:01:04.345Z,16.87
2017-12-21T04:03:32.870Z,16.02
2017-12-21T04:06:00.669Z,15.60
2017-12-21T04:08:28.461Z,15.90
2017-12-21T04:10:56.959Z,15.77
2017-12-21T04:13:24.696Z,14.38
2017-12-21T04:15:53.193Z,15.57
2017-12-21T04:18:21.824Z,16.48
2017-12-21T04:20:49.559Z,15.75
2017-12-21T04:23:17.317Z,15.77
2017-12-21T04:25:45.049Z,16.25
2017-12-21T04:28:12.792Z,16.52
2017-12-21T04:30:40.547Z,16.80
2017-12-21T04:33:08.273Z,15.45
2017-12-21T04:35:35.992Z,15.93
2017-12-21T04:38:03.746Z,16.48
2017-12-21T04:40:31.509Z,14.98
2017-12-21T04:42:59.262Z,15.52
2017-12-21T04:45:27.022Z,14.77
2017-12-21T04:47:54.765Z,14.00
2017-12-21T04:50:22.538Z,16.30
2017-12-21T04:52:50.309Z,16.55
2017-12-21T04:55:18.095Z,15.98
2017-12-21T04:57:45.829Z,15.38
2017-12-21T05:00:13.626Z,14.98
2017-12-21T05:02:41.383Z,15.45
2017-12-21T05:05:09.125Z,14.43
2017-12-21T05:07:36.858Z,14.57
2017-12-21T05:10:05.374Z,14.27
2017-12-21T05:12:34.754Z,15.85
2017-12-21T05:15:02.518Z,16.77
2017-12-21T05:17:31.049Z,15.25
2017-12-21T05:19:58.801Z,17.58
2017-12-21T05:22:26.545Z,17.62
2017-12-21T05:24:54.302Z,16.45
2017-12-21T05:27:22.049Z,17.55
2017-12-21T05:29:50.541Z,17.15
2017-12-21T05:32:19.076Z,18.15
2017-12-21T05:34:46.797Z,16.75
2017-12-21T05:37:14.518Z,17.27
2017-12-21T05:39:42.378Z,17.20
2017-12-21T05:42:10.106Z,16.50
2017-12-21T05:44:37.826Z,16.52
2017-12-21T05:47:05.549Z,18.02
2017-12-21T05:49:33.286Z,16.02
2017-12-21T05:52:01.039Z,14.85
2017-12-21T05:54:29.533Z,17.25
2017-12-21T05:56:57.346Z,18.40
2017-12-21T05:59:25.098Z,16.70
2017-12-21T06:01:52.849Z,17.20
2017-12-21T06:04:20.605Z,16.67
2017-12-21T06:06:48.329Z,16.83
2017-12-21T06:09:16.824Z,16.60
2017-12-21T06:11:45.313Z,18.45
2017-12-21T06:14:13.029Z,17.90
2017-12-21T06:16:40.774Z,18.67
2017-12-21T06:19:08.488Z,18.87
2017-12-21T06:21:36.991Z,17.25
2017-12-21T06:24:04.709Z,18.50
2017-12-21T06:26:32.429Z,17.55
2017-12-21T06:29:00.145Z,20.05
2017-12-21T06:31:27.870Z,18.17
2017-12-21T06:33:55.760Z,16.55
2017-12-21T06:36:23.625Z,19.77
2017-12-21T06:38:51.493Z,17.65
2017-12-21T06:41:19.359Z,17.90
2017-12-21T06:43:47.161Z,17.70
2017-12-21T06:46:15.642Z,16.12
2017-12-21T06:48:44.292Z,16.42
2017-12-21T06:51:12.161Z,16.90
2017-12-21T06:53:40.033Z,16.50
2017-12-21T06:56:07.897Z,16.37
2017-12-21T06:58:35.766Z,15.85
2017-12-21T07:01:03.630Z,16.05
2017-12-21T07:03:31.498Z,16.60
2017-12-21T07:05:59.365Z,16.80
2017-12-21T07:08:27.232Z,15.93
2017-12-21T07:10:55.099Z,13.60
2017-12-21T07:13:22.966Z,16.67
2017-12-21T07:15:50.836Z,17.70
2017-12-21T07:18:18.701Z,18.10
2017-12-21T07:20:46.569Z,17.35
2017-12-21T07:23:14.286Z,16.42
2017-12-21T07:25:41.997Z,16.77
2017-12-21T07:28:09.714Z,17.02
2017-12-21T07:30:37.526Z,17.15
2017-12-21T07:33:05.326Z,17.35
2017-12-21T07:35:33.811Z,16.85
2017-12-21T07:38:02.293Z,16.45
2017-12-21T07:40:30.770Z,15.38
2017-12-21T07:42:59.270Z,17.48
2017-12-21T07:45:27.028Z,17.25
2017-12-21T07:47:55.507Z,15.32
2017-12-21T07:50:23.993Z,17.70
2017-12-21T07:52:52.475Z,17.35
2017-12-21T07:55:20.953Z,16.55
2017-12-21T07:57:49.433Z,17.77
2017-12-21T08:00:17.910Z,16.92
2017-12-21T08:02:46.403Z,16.15
2017-12-21T08:05:14.930Z,16.80
2017-12-21T08:07:42.650Z,19.95
2017-12-21T08:10:11.135Z,16.95
2017-12-21T08:12:38.855Z,15.68
2017-12-21T08:15:06.575Z,16.23
2017-12-21T08:17:34.291Z,18.42
2017-12-21T08:20:02.007Z,17.08
2017-12-21T08:22:29.718Z,17.70
2017-12-21T08:24:57.438Z,16.55
2017-12-21T08:27:25.169Z,16.52
2017-12-21T08:29:52.918Z,17.35
2017-12-21T08:32:20.648Z,19.02
2017-12-21T08:34:48.362Z,19.87
2017-12-21T08:37:16.847Z,18.20
2017-12-21T08:39:45.330Z,20.85
2017-12-21T08:42:13.816Z,19.12
2017-12-21T08:44:42.302Z,20.17
2017-12-21T08:47:10.018Z,19.05
2017-12-21T08:49:37.738Z,18.85
2017-12-21T08:52:05.453Z,19.33
2017-12-21T08:54:33.176Z,18.25
2017-12-21T08:57:00.896Z,18.55
2017-12-21T08:59:28.619Z,16.87
2017-12-21T09:01:56.342Z,17.77
2017-12-21T09:04:24.062Z,18.77
2017-12-21T09:06:51.783Z,17.00
2017-12-21T09:09:19.531Z,16.75
2017-12-21T09:11:48.075Z,15.85
2017-12-21T09:14:15.942Z,15.25
2017-12-21T09:16:43.808Z,16.60
2017-12-21T09:19:11.558Z,16.40
2017-12-21T09:21:39.294Z,15.73
2017-12-21T09:24:07.039Z,14.87
2017-12-21T09:26:35.539Z,14.93
2017-12-21T09:29:03.259Z,13.82
2017-12-21T09:31:31.031Z,13.60
2017-12-21T09:33:58.782Z,13.85
2017-12-21T09:36:26.513Z,13.75
2017-12-21T09:38:54.249Z,15.10
2017-12-21T09:41:22.733Z,13.05
2017-12-21T09:43:50.482Z,12.75
2017-12-21T09:46:18.984Z,11.70
2017-12-21T09:48:46.737Z,12.30
2017-12-21T09:51:15.222Z,12.20
2017-12-21T09:53:43.704Z,12.00
2017-12-21T09:56:12.199Z,11.82
2017-12-21T09:58:39.918Z,11.05
2017-12-21T10:01:07.642Z,12.65
2017-12-21T10:03:35.357Z,12.25
2017-12-21T10:06:03.086Z,11.85
2017-12-21T10:08:30.805Z,11.35
2017-12-21T10:10:59.277Z,12.25
2017-12-21T10:13:27.930Z,11.45
2017-12-21T10:15:55.798Z,11.52
2017-12-21T10:18:23.663Z,11.52
2017-12-21T10:20:51.531Z,10.90
2017-12-21T10:23:19.258Z,10.30
2017-12-21T10:25:46.995Z,10.95
2017-12-21T10:28:15.528Z,10.85
2017-12-21T10:30:43.250Z,10.52
2017-12-21T10:33:11.754Z,12.60
2017-12-21T10:35:39.474Z,12.10
2017-12-21T10:38:07.182Z,11.40
2017-12-21T10:40:34.982Z,11.57
2017-12-21T10:43:02.849Z,10.52
2017-12-21T10:45:30.716Z,11.30
2017-12-21T10:47:58.585Z,11.00
2017-12-21T10:50:26.305Z,10.38
2017-12-21T10:52:54.021Z,10.50
2017-12-21T10:55:21.743Z,11.15
2017-12-21T10:57:49.486Z,11.15
2017-12-21T11:00:17.990Z,11.40
2017-12-21T11:02:45.714Z,11.30
2017-12-21T11:05:13.433Z,11.70
2017-12-21T11:07:41.146Z,11.85
2017-12-21T11:10:09.645Z,12.02
2017-12-21T11:12:38.134Z,12.37
2017-12-21T11:15:05.858Z,10.70
2017-12-21T11:17:33.634Z,12.60
2017-12-21T11:20:01.475Z,11.30
2017-12-21T11:22:29.235Z,12.85
2017-12-21T11:24:56.974Z,11.68
2017-12-21T11:27:24.727Z,12.20
2017-12-21T11:29:52.469Z,12.45
2017-12-21T11:32:20.998Z,11.80
2017-12-21T11:34:48.778Z,13.15
2017-12-21T11:37:16.522Z,12.18
2017-12-21T11:39:44.278Z,12.55
2017-12-21T11:42:11.998Z,12.02
2017-12-21T11:44:39.714Z,11.77
2017-12-21T11:47:07.442Z,11.55
2017-12-21T11:49:35.958Z,11.90
2017-12-21T11:52:03.734Z,12.32
2017-12-21T11:54:31.489Z,11.05
2017-12-21T11:56:59.218Z,12.10
2017-12-21T11:59:27.693Z,10.77
2017-12-21T12:04:30.342Z,12.50
2017-12-21T12:06:58.095Z,12.43
2017-12-21T12:09:25.816Z,11.68
2017-12-21T12:11:54.307Z,11.43
2017-12-21T12:14:22.782Z,11.80
2017-12-21T12:16:51.261Z,10.90
2017-12-21T12:19:19.748Z,10.57
2017-12-21T12:21:48.230Z,11.50
2017-12-21T12:24:16.716Z,10.98
2017-12-21T12:26:45.201Z,11.45
2017-12-21T12:29:13.686Z,10.75
2017-12-21T12:31:42.165Z,10.13
2017-12-21T12:34:10.653Z,10.05
2017-12-21T12:36:38.369Z,10.20
2017-12-21T12:39:06.105Z,10.77
2017-12-21T12:41:33.828Z,9.50
2017-12-21T12:44:02.354Z,11.43
2017-12-21T12:46:30.139Z,11.50
2017-12-21T12:48:57.921Z,11.27
2017-12-21T12:51:25.645Z,9.40
2017-12-21T12:53:53.379Z,10.93
2017-12-21T12:56:21.864Z,11.20
2017-12-21T12:58:49.578Z,9.93
2017-12-21T13:01:17.294Z,10.32
2017-12-21T13:03:45.010Z,12.10
2017-12-21T13:06:12.731Z,12.00
2017-12-21T13:08:40.458Z,11.40
2017-12-21T13:11:08.189Z,11.75
2017-12-21T13:13:35.915Z,12.02
2017-12-21T13:16:03.655Z,12.88
2017-12-21T13:18:31.370Z,12.70
2017-12-21T13:20:59.091Z,12.98
2017-12-21T13:23:27.576Z,12.93
2017-12-21T13:25:56.065Z,12.23
2017-12-21T13:28:24.559Z,12.40
2017-12-21T13:30:52.282Z,12.77
2017-12-21T13:33:20.018Z,13.35
2017-12-21T13:35:47.744Z,12.80
2017-12-21T13:38:15.454Z,14.02
2017-12-21T13:40:43.178Z,13.23
2017-12-21T13:43:10.901Z,15.07
2017-12-21T13:45:38.610Z,14.27
2017-12-21T13:48:06.337Z,14.73
2017-12-21T13:50:34.050Z,14.63
2017-12-21T13:53:01.771Z,13.75
2017-12-21T13:55:30.276Z,13.75
2017-12-21T13:57:58.038Z,14.87
2017-12-21T14:00:26.590Z,14.18
2017-12-21T14:02:54.352Z,14.60
2017-12-21T14:05:22.082Z,14.95
2017-12-21T14:07:49.802Z,14.87
2017-12-21T14:10:18.285Z,13.85
2017-12-21T14:12:46.766Z,13.40
2017-12-21T14:15:15.267Z,13.98
2017-12-21T14:17:42.986Z,14.60
2017-12-21T14:20:10.718Z,15.57
2017-12-21T14:22:38.431Z,14.38
2017-12-21T14:25:06.919Z,14.80
2017-12-21T14:27:35.417Z,15.00
2017-12-21T14:30:03.152Z,15.75
2017-12-21T14:32:30.946Z,15.15
2017-12-21T14:34:58.662Z,14.45
2017-12-21T14:37:26.387Z,15.10
2017-12-21T14:39:54.101Z,14.35
2017-12-21T14:42:21.827Z,14.50
2017-12-21T14:44:49.547Z,14.00
2017-12-21T14:47:18.025Z,13.05
2017-12-21T14:49:45.745Z,13.73
2017-12-21T14:52:13.498Z,13.75
2017-12-21T14:54:41.229Z,13.20
2017-12-21T14:57:09.714Z,11.90
2017-12-21T14:59:37.451Z,13.00
2017-12-21T15:02:05.175Z,11.85
2017-12-21T15:04:32.894Z,12.48
2017-12-21T15:07:01.386Z,14.05
2017-12-21T15:09:29.866Z,13.62
2017-12-21T15:11:58.373Z,12.15
2017-12-21T15:14:26.106Z,11.40
2017-12-21T15:16:54.585Z,12.27
2017-12-21T15:19:23.069Z,12.50
2017-12-21T15:21:51.549Z,12.15
2017-12-21T15:24:20.046Z,13.07
2017-12-21T15:26:48.526Z,12.35
2017-12-21T15:29:17.006Z,12.07
2017-12-21T15:31:45.490Z,13.20
2017-12-21T15:34:13.975Z,12.60
2017-12-21T15:36:42.466Z,12.65
2017-12-21T15:39:10.186Z,13.88
2017-12-21T15:41:37.903Z,12.23
2017-12-21T15:44:05.623Z,13.93
2017-12-21T15:46:33.339Z,13.75
2017-12-21T15:49:01.057Z,14.73
2017-12-21T15:51:28.778Z,14.15
2017-12-21T15:53:56.527Z,13.00
2017-12-21T15:56:24.290Z,14.18
2017-12-21T15:58:52.012Z,14.80
2017-12-21T16:01:20.494Z,12.57
2017-12-21T16:03:48.254Z,14.87
2017-12-21T16:06:15.990Z,13.07
2017-12-21T16:08:43.752Z,14.95
2017-12-21T16:11:11.530Z,12.77
2017-12-21T16:13:39.287Z,12.57
2017-12-21T16:16:07.036Z,12.07
2017-12-21T16:18:34.794Z,13.55
2017-12-21T16:21:02.545Z,12.35
2017-12-21T16:23:30.265Z,12.77
2017-12-21T16:25:57.974Z,13.13
2017-12-21T16:28:25.699Z,13.38
2017-12-21T16:30:53.425Z,14.75
2017-12-21T16:33:21.130Z,13.62
2017-12-21T16:35:48.866Z,13.90
2017-12-21T16:38:16.598Z,15.40
2017-12-21T16:40:44.331Z,15.00
2017-12-21T16:43:12.831Z,16.05
2017-12-21T16:45:40.575Z,15.75
2017-12-21T16:48:09.227Z,14.10
2017-12-21T16:50:37.094Z,14.73
2017-12-21T16:53:04.961Z,15.55
2017-12-21T16:55:35.616Z,16.35
2017-12-21T16:58:04.279Z,15.15
2017-12-21T17:00:32.058Z,16.17
2017-12-21T17:02:59.822Z,16.80
2017-12-21T17:05:27.558Z,17.25
2017-12-21T17:07:55.298Z,17.55
2017-12-21T17:10:23.019Z,16.20
2017-12-21T17:12:50.782Z,17.65
2017-12-21T17:15:18.555Z,18.75
2017-12-21T17:17:46.286Z,16.48
2017-12-21T17:20:14.030Z,18.02
2017-12-21T17:22:41.771Z,17.60
2017-12-21T17:25:11.006Z,19.10
2017-12-21T17:27:38.812Z,17.95
2017-12-21T17:30:06.660Z,16.37
2017-12-21T17:32:41.216Z,17.95
2017-12-21T17:35:17.272Z,17.42
2017-12-21T17:37:45.757Z,18.37
2017-12-21T17:40:14.247Z,18.48
2017-12-21T17:42:42.725Z,19.58
2017-12-21T17:45:11.262Z,19.35
2017-12-21T17:47:39.061Z,19.83
2017-12-21T17:50:06.807Z,18.70
2017-12-21T17:52:35.756Z,17.95
2017-12-21T17:55:06.464Z,19.17
2017-12-21T17:57:34.995Z,18.05
2017-12-21T18:00:03.806Z,19.42
2017-12-21T18:02:31.666Z,19.35
2017-12-21T18:04:59.534Z,19.60
2017-12-21T18:07:27.402Z,19.33
2017-12-21T18:09:55.268Z,18.90
2017-12-21T18:12:22.993Z,18.73
2017-12-21T18:14:50.745Z,18.92
2017-12-21T18:17:19.248Z,20.37
2017-12-21T18:19:47.006Z,21.15
2017-12-21T18:22:14.750Z,20.80
2017-12-21T18:24:43.295Z,20.40
2017-12-21T18:27:11.786Z,19.40
2017-12-21T18:29:39.518Z,21.15
2017-12-21T18:32:07.237Z,19.55
2017-12-21T18:34:35.758Z,20.42
2017-12-21T18:37:03.502Z,20.75
2017-12-21T18:39:31.266Z,21.37
2017-12-21T18:41:58.994Z,20.15
2017-12-21T18:44:26.736Z,20.83
2017-12-21T18:46:54.506Z,19.65
2017-12-21T18:49:22.258Z,20.52
2017-12-21T18:51:49.994Z,20.90
2017-12-21T18:54:29.574Z,19.87
2017-12-21T18:56:57.309Z,19.40
2017-12-21T18:59:25.074Z,19.85
2017-12-21T19:01:52.866Z,20.30
2017-12-21T19:04:20.741Z,19.15
2017-12-21T19:06:49.306Z,18.73
2017-12-21T19:09:17.050Z,18.90
2017-12-21T19:11:44.791Z,19.92
2017-12-21T19:14:13.311Z,20.02
2017-12-21T19:16:41.202Z,19.17
2017-12-21T19:19:09.069Z,19.27
2017-12-21T19:21:36.936Z,20.12
2017-12-21T19:24:04.907Z,19.23
2017-12-21T19:26:32.774Z,18.90
2017-12-21T19:29:00.641Z,18.73
2017-12-21T19:31:28.509Z,17.85
2017-12-21T19:33:56.375Z,21.58
2017-12-21T19:36:24.145Z,19.40
2017-12-21T19:38:52.008Z,20.17
2017-12-21T19:41:19.876Z,18.77
2017-12-21T19:43:47.746Z,21.55
2017-12-21T19:46:15.610Z,17.42
2017-12-21T19:48:43.477Z,18.08
2017-12-21T19:51:11.345Z,19.62
2017-12-21T19:53:39.212Z,19.37
2017-12-21T19:56:07.078Z,19.40
2017-12-21T19:58:34.798Z,19.00
2017-12-21T20:01:02.711Z,19.33
2017-12-21T20:03:30.578Z,22.20
2017-12-21T20:05:58.448Z,19.62
2017-12-21T20:08:26.321Z,21.23
2017-12-21T20:10:54.184Z,19.48
2017-12-21T20:13:22.047Z,19.40
2017-12-21T20:15:49.785Z,18.10
2017-12-21T20:18:17.537Z,18.80
2017-12-21T20:20:45.278Z,19.48
2017-12-21T20:23:13.777Z,18.70
2017-12-21T20:25:41.522Z,20.55
2017-12-21T20:28:10.058Z,18.20
2017-12-21T20:30:37.805Z,19.67
2017-12-21T20:33:05.558Z,18.90
2017-12-21T20:35:33.330Z,20.08
2017-12-21T20:38:01.053Z,17.73
2017-12-21T20:40:28.790Z,17.40
2017-12-21T20:42:56.542Z,19.02
2017-12-21T20:45:24.295Z,19.25
2017-12-21T20:47:52.159Z,18.40
2017-12-21T20:50:20.210Z,19.17
2017-12-21T20:52:48.722Z,17.02
2017-12-21T20:55:16.457Z,17.40
2017-12-21T20:57:44.959Z,18.50
2017-12-21T21:00:12.752Z,18.52
2017-12-21T21:02:40.511Z,18.05
2017-12-21T21:05:08.270Z,19.20
2017-12-21T21:07:36.074Z,18.85
2017-12-21T21:10:04.630Z,18.75
2017-12-21T21:12:32.384Z,18.75
2017-12-21T21:15:00.138Z,18.30
2017-12-21T21:17:28.135Z,19.12
2017-12-21T21:19:56.114Z,19.20
2017-12-21T21:22:23.972Z,17.05
2017-12-21T21:24:51.738Z,18.70
2017-12-21T21:27:19.494Z,18.52
2017-12-21T21:29:47.227Z,19.65
2017-12-21T21:32:14.978Z,19.05
2017-12-21T21:37:18.390Z,19.00
2017-12-21T21:39:46.893Z,18.92
2017-12-21T21:42:14.648Z,18.73
2017-12-21T21:44:42.390Z,19.42
2017-12-21T21:47:10.890Z,19.08
2017-12-21T21:49:38.622Z,20.17
2017-12-21T21:52:06.418Z,19.10
2017-12-21T21:54:34.921Z,19.73
2017-12-21T21:57:02.654Z,18.87
2017-12-21T21:59:31.177Z,19.40
2017-12-21T22:01:58.911Z,20.48
2017-12-21T22:04:27.467Z,18.98
2017-12-21T22:06:56.652Z,17.45
2017-12-21T22:09:24.667Z,18.40
2017-12-21T22:11:52.397Z,20.10
2017-12-21T22:14:20.153Z,21.77
2017-12-21T22:16:48.005Z,19.60
2017-12-21T22:19:48.539Z,19.27
2017-12-21T22:22:18.500Z,19.58
2017-12-21T22:24:52.482Z,19.80
2017-12-21T22:27:21.309Z,18.83
2017-12-21T22:29:51.712Z,20.20
2017-12-21T22:32:19.493Z,20.48
2017-12-21T22:34:47.970Z,18.90
2017-12-21T22:37:16.493Z,18.00
2017-12-21T22:39:44.247Z,17.65
2017-12-21T22:42:11.966Z,19.42
2017-12-21T22:44:39.695Z,19.12
2017-12-21T22:47:07.426Z,19.00
2017-12-21T22:49:35.167Z,17.45
2017-12-21T22:52:02.934Z,19.87
2017-12-21T22:54:31.426Z,18.87
2017-12-21T22:56:59.921Z,16.80
2017-12-21T22:59:27.689Z,18.02
2017-12-21T23:01:55.468Z,18.92
2017-12-21T23:04:23.197Z,17.42
2017-12-21T23:06:51.706Z,16.83
2017-12-21T23:09:19.443Z,16.10
2017-12-21T23:11:47.938Z,18.10
2017-12-21T23:14:16.430Z,19.10
2017-12-21T23:16:44.138Z,16.45
2017-12-21T23:19:11.931Z,19.85
2017-12-21T23:21:40.426Z,18.60
2017-12-21T23:24:08.926Z,18.73
2017-12-21T23:26:36.690Z,17.83
2017-12-21T23:29:04.430Z,17.67
2017-12-21T23:31:32.924Z,18.60
2017-12-21T23:34:01.407Z,17.65
2017-12-21T23:36:29.325Z,19.33
2017-12-21T23:38:57.125Z,18.48
2017-12-21T23:41:25.623Z,19.17
2017-12-21T23:43:54.126Z,18.30
2017-12-21T23:46:21.874Z,19.48
2017-12-21T23:48:49.789Z,18.42
2017-12-21T23:51:17.657Z,18.17
2017-12-21T23:53:45.523Z,17.00
2017-12-21T23:56:13.394Z,18.55
2017-12-21T23:58:41.114Z,16.70
